Time;durP1;ratioP1;P1;durP2;ratioP2;P2;SDS_P1;SDS_P2;PMS_P1;PMS_P2;Temp;Humidity;BMP_temperature;BMP_pressure;BME280_temperature;BME280_humidity;BME280_pressure;Samples;Min_cycle;Max_cycle;Signal;HPM_P1;HPM_P2
2022/07/25 00:05:42;;;;;;;5.25;4.72;;;20.90;99.90;;;;;;4936498;23;20427;-77
2022/07/25 00:10:03;;;;;;;;;;;;;;;;;;;;;
2022/07/25 00:16:27;;;;;;;10.47;5.63;;;20.70;99.90;;;;;;4876687;23;20042;-83
2022/07/25 00:18:52;;;;;;;8.15;6.55;;;20.70;99.90;;;;;;4875068;29;20305;-79
2022/07/25 00:21:18;;;;;;;7.55;6.22;;;20.70;99.90;;;;;;4878436;29;20083;-80
2022/07/25 00:23:43;;;;;;;9.23;6.72;;;20.60;99.90;;;;;;4887317;29;20040;-80
2022/07/25 00:26:09;;;;;;;9.10;6.78;;;20.60;99.90;;;;;;4879964;29;20060;-79
2022/07/25 00:28:34;;;;;;;9.95;6.60;;;20.50;99.90;;;;;;4878609;29;20060;-80
2022/07/25 00:31:00;;;;;;;7.57;6.78;;;20.50;99.90;;;;;;4875850;29;20372;-80
2022/07/25 00:33:26;;;;;;;9.05;6.78;;;20.60;99.90;;;;;;4879230;29;20471;-79
2022/07/25 00:35:51;;;;;;;12.27;7.40;;;20.50;99.90;;;;;;4865525;29;20507;-80
2022/07/25 00:38:17;;;;;;;9.60;7.15;;;20.50;99.90;;;;;;4877198;29;20475;-80
2022/07/25 00:40:43;;;;;;;9.23;7.70;;;20.50;99.90;;;;;;4880795;29;20064;-81
2022/07/25 00:43:08;;;;;;;7.32;6.63;;;20.40;99.90;;;;;;4879065;29;20040;-80
2022/07/25 00:45:34;;;;;;;13.00;8.10;;;20.40;99.90;;;;;;4876597;29;20044;-78
2022/07/25 00:48:00;;;;;;;7.60;6.75;;;20.30;99.90;;;;;;4863561;29;20085;-78
2022/07/25 00:50:25;;;;;;;10.25;7.45;;;20.30;99.90;;;;;;4865226;29;20045;-78
2022/07/25 00:52:51;;;;;;;7.97;7.18;;;20.30;99.90;;;;;;4861522;29;20045;-80
2022/07/25 00:55:18;;;;;;;9.02;8.13;;;20.20;99.90;;;;;;4866702;29;20071;-78
2022/07/25 00:57:44;;;;;;;8.60;7.57;;;20.20;99.90;;;;;;4876925;29;20128;-80
2022/07/25 01:00:13;;;;;;;8.50;7.63;;;20.10;99.90;;;;;;4878826;29;20083;-80
2022/07/25 01:02:39;;;;;;;13.48;8.55;;;20.00;99.90;;;;;;4882785;29;20495;-80
2022/07/25 01:05:05;;;;;;;9.52;7.57;;;20.00;99.90;;;;;;4894124;29;20029;-80
2022/07/25 01:07:31;;;;;;;10.82;9.68;;;20.00;99.90;;;;;;4869081;29;20599;-80
2022/07/25 01:09:58;;;;;;;10.90;9.27;;;19.90;99.90;;;;;;4882403;29;20049;-80
2022/07/25 01:12:24;;;;;;;11.05;8.82;;;19.90;99.90;;;;;;4882758;29;20041;-80
2022/07/25 01:14:49;;;;;;;11.05;8.65;;;19.90;99.90;;;;;;4885726;29;20055;-80
2022/07/25 01:17:15;;;;;;;11.73;9.00;;;19.80;99.90;;;;;;4878587;29;20057;-80
2022/07/25 01:19:41;;;;;;;13.80;9.70;;;19.80;99.90;;;;;;4878351;29;20052;-80
2022/07/25 01:22:07;;;;;;;11.23;9.57;;;19.80;99.90;;;;;;4863362;29;20043;-80
2022/07/25 01:24:34;;;;;;;12.25;8.98;;;19.80;99.90;;;;;;4893099;29;20048;-82
2022/07/25 01:27:00;;;;;;;11.13;9.38;;;19.80;99.90;;;;;;4874135;29;20048;-80
2022/07/25 01:29:26;;;;;;;12.18;10.65;;;19.70;99.90;;;;;;4865239;29;20045;-80
2022/07/25 01:31:51;;;;;;;10.25;9.00;;;19.70;99.90;;;;;;4880817;29;20063;-80
2022/07/25 01:34:17;;;;;;;11.48;10.35;;;19.60;99.90;;;;;;4863793;29;20040;-78
2022/07/25 01:36:42;;;;;;;12.77;11.25;;;19.60;99.90;;;;;;4866624;29;20571;-78
2022/07/25 01:39:08;;;;;;;11.82;10.38;;;19.60;99.90;;;;;;4869760;29;20085;-78
2022/07/25 01:41:34;;;;;;;14.85;10.93;;;19.50;99.90;;;;;;4873946;29;20055;-78
2022/07/25 01:43:59;;;;;;;15.02;12.13;;;19.50;99.90;;;;;;4870446;29;20590;-78
2022/07/25 01:46:25;;;;;;;14.48;12.63;;;19.50;99.90;;;;;;4889218;29;20104;-78
2022/07/25 01:48:50;;;;;;;16.77;13.70;;;19.40;99.90;;;;;;4871585;29;20052;-78
2022/07/25 01:51:16;;;;;;;14.10;12.13;;;19.40;99.90;;;;;;4879587;29;20048;-80
2022/07/25 01:53:41;;;;;;;16.08;12.63;;;19.40;99.90;;;;;;4880466;29;20496;-80
2022/07/25 01:56:07;;;;;;;15.13;13.02;;;19.30;99.90;;;;;;4880164;29;20088;-80
2022/07/25 01:58:33;;;;;;;15.77;13.95;;;19.30;99.90;;;;;;4878241;29;20060;-80
2022/07/25 02:00:58;;;;;;;16.40;13.60;;;19.30;99.90;;;;;;4879527;29;20486;-81
2022/07/25 02:03:29;;;;;;;18.17;14.05;;;19.20;99.90;;;;;;4897164;29;20045;-81
2022/07/25 02:06:01;;;;;;;17.38;14.43;;;19.10;99.90;;;;;;4894769;29;20040;-81
2022/07/25 02:08:28;;;;;;;14.38;12.27;;;19.00;99.90;;;;;;4882435;29;20052;-80
2022/07/25 02:10:54;;;;;;;16.77;13.07;;;19.00;99.90;;;;;;4884215;29;20063;-81
2022/07/25 02:13:20;;;;;;;16.52;13.57;;;19.00;99.90;;;;;;4881226;29;20327;-80
2022/07/25 02:15:45;;;;;;;13.55;12.02;;;19.10;99.90;;;;;;4882457;29;20129;-80
2022/07/25 02:18:11;;;;;;;15.05;13.02;;;19.00;99.90;;;;;;4880112;29;20048;-80
2022/07/25 02:20:36;;;;;;;14.52;12.63;;;19.10;99.90;;;;;;4882183;29;20509;-80
2022/07/25 02:23:03;;;;;;;15.65;12.27;;;19.10;99.90;;;;;;4869598;29;21316;-81
2022/07/25 02:25:29;;;;;;;15.48;13.35;;;19.10;99.90;;;;;;4881744;29;20158;-80
2022/07/25 02:27:54;;;;;;;14.77;13.27;;;19.10;99.90;;;;;;4880021;29;20117;-81
2022/07/25 02:30:20;;;;;;;12.75;11.45;;;19.10;99.90;;;;;;4862104;29;20088;-78
2022/07/25 02:32:45;;;;;;;15.90;14.25;;;19.00;99.90;;;;;;4873792;29;20064;-78
2022/07/25 02:35:11;;;;;;;15.68;13.48;;;19.00;99.90;;;;;;4875140;29;20071;-79
2022/07/25 02:37:36;;;;;;;16.40;14.57;;;19.00;99.90;;;;;;4874475;29;20037;-78
2022/07/25 02:40:04;;;;;;;15.88;14.20;;;19.00;99.90;;;;;;4884905;29;20052;-78
2022/07/25 02:42:29;;;;;;;15.30;13.63;;;19.00;99.90;;;;;;4877494;29;20045;-79
2022/07/25 02:44:55;;;;;;;16.08;14.48;;;19.00;99.90;;;;;;4876103;29;20046;-81
2022/07/25 02:47:21;;;;;;;19.08;16.00;;;19.00;99.90;;;;;;4896439;29;20041;-82
2022/07/25 02:49:46;;;;;;;18.88;16.63;;;19.00;99.90;;;;;;4867768;29;20048;-80
2022/07/25 02:52:12;;;;;;;18.50;14.82;;;18.90;99.90;;;;;;4885036;29;20041;-82
2022/07/25 02:54:37;;;;;;;18.95;15.68;;;19.00;99.90;;;;;;4878648;29;20048;-78
2022/07/25 02:57:03;;;;;;;16.20;14.55;;;19.00;99.90;;;;;;4875767;29;20040;-79
2022/07/25 02:59:28;;;;;;;19.70;15.85;;;19.00;99.90;;;;;;4873398;29;20051;-79
2022/07/25 03:01:54;;;;;;;19.80;17.17;;;19.00;99.90;;;;;;4875090;29;20045;-79
2022/07/25 03:04:19;;;;;;;19.35;15.57;;;19.00;99.90;;;;;;4876092;29;20093;-81
2022/07/25 03:06:45;;;;;;;18.85;15.68;;;19.00;99.90;;;;;;4859798;29;20048;-81
2022/07/25 03:09:11;;;;;;;22.10;17.05;;;19.00;99.90;;;;;;4875265;29;20032;-81
2022/07/25 03:11:36;;;;;;;19.42;16.65;;;19.00;99.90;;;;;;4877786;29;20103;-80
2022/07/25 03:14:02;;;;;;;18.05;15.98;;;19.00;99.90;;;;;;4877011;29;20036;-81
2022/07/25 03:16:28;;;;;;;23.23;15.88;;;19.00;99.90;;;;;;4878687;29;20058;-81
2022/07/25 03:18:53;;;;;;;16.80;15.02;;;19.00;99.90;;;;;;4873738;29;20720;-81
2022/07/25 03:21:19;;;;;;;17.73;14.43;;;19.00;99.90;;;;;;4879686;29;20044;-82
2022/07/25 03:23:44;;;;;;;18.20;15.82;;;19.00;99.90;;;;;;4876976;29;20040;-82
2022/07/25 03:26:10;;;;;;;17.65;14.80;;;19.00;99.90;;;;;;4878414;29;20044;-81
2022/07/25 03:28:36;;;;;;;17.00;15.30;;;18.90;99.90;;;;;;4879800;29;20131;-81
2022/07/25 03:31:01;;;;;;;20.92;15.88;;;18.90;99.90;;;;;;4874852;29;20151;-81
2022/07/25 03:33:27;;;;;;;17.45;15.20;;;18.90;99.90;;;;;;4881058;29;20165;-81
2022/07/25 03:35:53;;;;;;;16.33;14.65;;;18.90;99.90;;;;;;4875037;29;20570;-82
2022/07/25 03:38:19;;;;;;;25.30;17.00;;;18.90;99.90;;;;;;4884492;29;20048;-81
2022/07/25 03:40:45;;;;;;;18.85;15.98;;;18.80;99.90;;;;;;4878040;29;20059;-81
2022/07/25 03:43:10;;;;;;;26.70;17.45;;;18.90;99.90;;;;;;4879573;29;20044;-82
2022/07/25 03:45:36;;;;;;;20.00;15.75;;;18.90;99.90;;;;;;4878590;29;20101;-81
2022/07/25 03:48:02;;;;;;;23.13;15.70;;;18.80;99.90;;;;;;4881406;29;20044;-81
2022/07/25 03:50:27;;;;;;;23.80;16.02;;;18.90;99.90;;;;;;4882259;29;20206;-80
2022/07/25 03:52:53;;;;;;;19.75;15.15;;;18.90;99.90;;;;;;4880327;29;20643;-81
2022/07/25 03:55:18;;;;;;;19.42;16.00;;;18.80;99.90;;;;;;4879127;29;20052;-81
2022/07/25 03:57:44;;;;;;;19.10;14.50;;;18.80;99.90;;;;;;4883929;29;20044;-81
2022/07/25 04:00:11;;;;;;;18.58;15.63;;;18.80;99.90;;;;;;4882423;29;20123;-81
2022/07/25 04:02:36;;;;;;;18.17;16.10;;;18.70;99.90;;;;;;4883080;29;20059;-81
2022/07/25 04:05:06;;;;;;;17.25;14.35;;;18.80;99.90;;;;;;4867675;29;20037;-81
2022/07/25 04:07:33;;;;;;;17.42;14.43;;;18.70;99.90;;;;;;4866465;29;20044;-81
2022/07/25 04:09:58;;;;;;;17.65;15.77;;;18.70;99.90;;;;;;4867233;29;20155;-81
2022/07/25 04:12:25;;;;;;;16.27;14.68;;;18.60;99.90;;;;;;4882963;29;20732;-81
2022/07/25 04:14:50;;;;;;;16.48;14.77;;;18.60;99.90;;;;;;4880154;29;20045;-81
2022/07/25 04:17:16;;;;;;;18.70;15.32;;;18.60;99.90;;;;;;4880488;29;20158;-82
2022/07/25 04:19:41;;;;;;;18.08;14.82;;;18.60;99.90;;;;;;4880257;29;20072;-81
2022/07/25 04:22:07;;;;;;;17.23;15.32;;;18.60;99.90;;;;;;4879871;29;20047;-81
2022/07/25 04:24:33;;;;;;;17.80;14.15;;;18.60;99.90;;;;;;4876384;29;20267;-81
2022/07/25 04:26:58;;;;;;;20.25;15.05;;;18.60;99.90;;;;;;4890530;29;20045;-81
2022/07/25 04:29:24;;;;;;;19.15;15.80;;;18.60;99.90;;;;;;4880487;29;20036;-81
2022/07/25 04:31:49;;;;;;;20.55;14.00;;;18.60;99.90;;;;;;4883154;29;20111;-81
2022/07/25 04:34:15;;;;;;;16.75;14.93;;;18.70;99.90;;;;;;4883354;29;20127;-82
2022/07/25 04:36:40;;;;;;;16.42;14.60;;;18.70;99.90;;;;;;4880773;29;20044;-82
2022/07/25 04:39:06;;;;;;;15.40;13.57;;;18.80;99.90;;;;;;4885019;29;20048;-81
2022/07/25 04:41:32;;;;;;;16.25;14.57;;;18.90;99.90;;;;;;4883132;29;20164;-81
2022/07/25 04:43:57;;;;;;;18.38;14.90;;;18.90;99.90;;;;;;4879409;29;20087;-82
2022/07/25 04:46:23;;;;;;;16.55;13.93;;;19.00;99.90;;;;;;4889927;29;21326;-82
2022/07/25 04:48:49;;;;;;;15.10;13.07;;;19.00;99.90;;;;;;4874896;29;20101;-81
2022/07/25 04:51:16;;;;;;;17.58;15.73;;;19.20;99.90;;;;;;4871828;29;20051;-82
2022/07/25 04:53:42;;;;;;;20.63;13.63;;;19.30;99.90;;;;;;4873957;29;20444;-79
2022/07/25 04:56:08;;;;;;;23.88;15.63;;;19.40;99.90;;;;;;4874117;29;20040;-80
2022/07/25 04:58:33;;;;;;;23.23;15.45;;;19.50;99.90;;;;;;4873091;29;20491;-79
2022/07/25 05:00:59;;;;;;;20.08;13.90;;;19.70;99.90;;;;;;4871188;29;20112;-79
2022/07/25 05:03:25;;;;;;;15.55;12.80;;;19.80;99.90;;;;;;4875240;29;20075;-80
2022/07/25 05:05:51;;;;;;;19.80;14.63;;;20.00;99.90;;;;;;4873102;29;20579;-79
2022/07/25 05:08:16;;;;;;;19.73;13.63;;;20.10;99.90;;;;;;4877126;29;20420;-80
2022/07/25 05:10:42;;;;;;;18.27;13.80;;;20.30;99.90;;;;;;4872714;29;20403;-79
2022/07/25 05:13:08;;;;;;;15.27;13.02;;;20.40;99.90;;;;;;4876936;29;20044;-80
2022/07/25 05:15:34;;;;;;;18.00;13.50;;;20.50;99.90;;;;;;4861345;29;20048;-80
2022/07/25 05:18:00;;;;;;;15.48;12.27;;;20.60;99.90;;;;;;4875158;29;20052;-79
2022/07/25 05:20:26;;;;;;;15.65;14.00;;;20.70;99.90;;;;;;4874729;29;20044;-80
2022/07/25 05:22:51;;;;;;;16.25;11.93;;;20.90;99.90;;;;;;4871603;29;20120;-79
2022/07/25 05:25:18;;;;;;;14.23;12.05;;;21.00;99.90;;;;;;4888586;29;20124;-80
2022/07/25 05:27:43;;;;;;;14.90;11.68;;;21.20;99.90;;;;;;4870870;29;20044;-79
2022/07/25 05:30:10;;;;;;;13.00;11.50;;;21.40;99.90;;;;;;4873176;29;20072;-80
2022/07/25 05:32:37;;;;;;;14.35;11.93;;;21.50;99.90;;;;;;4869176;29;20075;-79
2022/07/25 05:35:04;;;;;;;13.90;10.75;;;21.70;99.90;;;;;;4859332;29;20459;-79
2022/07/25 05:37:30;;;;;;;14.60;10.73;;;21.90;99.90;;;;;;4874034;29;20462;-79
2022/07/25 05:39:55;;;;;;;13.00;9.88;;;22.10;99.90;;;;;;4868791;29;20041;-80
2022/07/25 05:42:21;;;;;;;12.68;9.63;;;22.20;99.90;;;;;;4871667;29;20472;-79
2022/07/25 05:44:47;;;;;;;10.77;9.65;;;22.30;99.90;;;;;;4869977;29;20041;-79
2022/07/25 05:47:12;;;;;;;12.70;10.02;;;22.40;99.90;;;;;;4872554;29;20040;-79
2022/07/25 05:49:38;;;;;;;11.13;8.82;;;22.50;99.90;;;;;;4874463;29;20514;-79
2022/07/25 05:52:04;;;;;;;11.65;9.05;;;22.60;99.90;;;;;;4876542;29;20131;-79
2022/07/25 05:54:30;;;;;;;10.10;9.00;;;22.80;99.90;;;;;;4859555;29;20048;-79
2022/07/25 05:56:55;;;;;;;9.05;8.15;;;22.90;99.90;;;;;;4872674;29;20049;-80
2022/07/25 05:59:21;;;;;;;10.93;8.38;;;22.90;99.90;;;;;;4869177;29;20037;-79
2022/07/25 06:01:47;;;;;;;9.43;8.50;;;23.00;99.90;;;;;;4856005;29;20448;-79
2022/07/25 06:04:12;;;;;;;8.27;7.45;;;23.10;99.90;;;;;;4872229;29;20037;-79
2022/07/25 06:06:38;;;;;;;8.38;7.57;;;23.20;99.90;;;;;;4873107;29;20171;-79
2022/07/25 06:09:03;;;;;;;9.15;8.25;;;23.30;99.90;;;;;;4877943;29;20042;-79
2022/07/25 06:11:30;;;;;;;8.77;7.88;;;23.30;99.90;;;;;;4869041;29;20044;-80
2022/07/25 06:13:56;;;;;;;9.85;7.32;;;23.30;99.90;;;;;;4885052;29;20052;-82
2022/07/25 06:16:21;;;;;;;8.43;7.35;;;23.40;99.90;;;;;;4882772;29;20040;-81
2022/07/25 06:24:37;;;;;;;13.75;7.35;;;23.60;99.90;;;;;;5028300;23;20071;-77
2022/07/25 06:40:30;;;;;;;;;;;;;;;;;;;;;
2022/07/25 06:52:57;;;;;;;;;;;;;;;;;;;;;
2022/07/25 07:06:48;;;;;;;10.38;7.30;;;26.10;99.90;;;;;;4713656;30;20036;-76
2022/07/25 07:11:12;;;;;;;9.27;8.38;;;26.40;99.90;;;;;;4680297;30;20180;-75
2022/07/25 07:14:57;;;;;;;;;;;;;;;;;;;;;
2022/07/25 08:13:07;;;;;;;;;;;;;;;;;;;;;
2022/07/25 09:08:55;;;;;;;6.90;4.20;;;26.60;98.00;;;;;;5592332;23;20052;-82
2022/07/25 09:11:30;;;;;;;3.72;3.33;;;26.50;97.20;;;;;;4883574;29;20040;-82
2022/07/25 09:14:08;;;;;;;4.30;3.25;;;26.40;97.80;;;;;;4891676;29;20123;-82
2022/07/25 09:16:40;;;;;;;4.05;3.47;;;26.30;97.10;;;;;;4906739;29;20048;-82
2022/07/25 09:19:20;;;;;;;3.85;3.35;;;26.20;96.80;;;;;;4899360;29;20062;-80
2022/07/25 10:39:37;;;;;;;2.65;0.80;;;26.50;94.90;;;;;;5926957;23;20027;-77
2022/07/25 10:42:04;;;;;;;1.30;0.70;;;26.70;95.30;;;;;;4878864;29;20335;-77
2022/07/25 10:44:45;;;;;;;1.67;0.90;;;27.20;95.60;;;;;;4875646;29;20052;-77
2022/07/25 10:47:13;;;;;;;1.58;0.60;;;27.40;94.40;;;;;;4880822;29;20041;-77
2022/07/25 10:49:41;;;;;;;1.95;0.68;;;27.70;95.00;;;;;;4877776;29;20044;-77
2022/07/25 10:52:13;;;;;;;1.90;0.63;;;28.10;95.20;;;;;;4887342;29;20067;-77
2022/07/25 14:40:25;;;;;;;;;;;;;;;;;;;;;
2022/07/25 17:24:37;;;;;;;2.58;0.73;;;23.20;90.40;;;;;;5621597;23;20141;-79
2022/07/25 17:27:06;;;;;;;2.63;0.65;;;23.20;90.60;;;;;;4883130;29;20075;-79
2022/07/25 17:29:35;;;;;;;2.38;0.50;;;22.90;90.70;;;;;;4898915;29;20045;-80
2022/07/25 18:03:37;;;;;;;;;;;;;;;;;;;;;
2022/07/25 18:10:50;;;;;;;3.75;0.40;;;21.90;94.80;;;;;;4919056;29;20067;-78
2022/07/25 18:13:53;;;;;;;4.15;0.30;;;21.90;95.80;;;;;;4890002;29;20076;-78
2022/07/25 18:16:19;;;;;;;7.47;0.73;;;21.80;96.10;;;;;;4899675;23;20494;-79
2022/07/25 18:18:45;;;;;;;3.58;0.63;;;21.80;96.20;;;;;;4915342;29;20048;-77
2022/07/25 18:21:10;;;;;;;5.05;0.90;;;21.70;96.30;;;;;;4928096;29;20043;-77
2022/07/25 18:23:36;;;;;;;4.43;0.60;;;21.70;96.50;;;;;;4920112;29;20054;-78
2022/07/25 18:26:02;;;;;;;4.22;0.55;;;21.60;96.80;;;;;;4897608;29;20181;-77
2022/07/25 18:28:27;;;;;;;4.10;0.38;;;21.60;97.20;;;;;;4934911;29;20354;-77
2022/07/25 18:30:53;;;;;;;3.38;0.40;;;21.60;97.30;;;;;;4915989;29;20036;-77
2022/07/25 18:33:20;;;;;;;1.77;0.35;;;21.60;97.40;;;;;;4923437;29;20062;-78
2022/07/25 18:35:49;;;;;;;1.90;0.50;;;21.50;97.50;;;;;;4916207;29;20055;-78
2022/07/25 18:38:14;;;;;;;2.90;0.32;;;21.50;97.80;;;;;;4919258;29;20036;-78
2022/07/25 18:40:40;;;;;;;6.30;0.57;;;21.40;97.90;;;;;;4920550;29;20557;-77
2022/07/25 18:43:06;;;;;;;7.13;1.95;;;21.40;98.20;;;;;;4922092;29;20198;-77
2022/07/25 18:45:32;;;;;;;4.80;0.50;;;21.40;98.60;;;;;;4925177;29;20066;-76
2022/07/25 18:47:58;;;;;;;3.72;0.40;;;21.30;98.60;;;;;;4917697;29;20401;-78
2022/07/25 18:50:24;;;;;;;2.83;0.68;;;21.30;98.90;;;;;;4912377;29;20040;-77
2022/07/25 18:52:49;;;;;;;3.75;0.75;;;21.30;99.20;;;;;;4900135;29;20078;-79
2022/07/25 18:55:15;;;;;;;3.60;0.57;;;21.30;99.30;;;;;;4922484;29;20035;-79
2022/07/25 18:57:40;;;;;;;2.33;0.47;;;21.30;99.50;;;;;;4923273;29;20047;-77
2022/07/25 19:00:07;;;;;;;5.25;1.00;;;21.20;99.70;;;;;;4919852;29;20065;-79
2022/07/25 19:02:33;;;;;;;6.90;1.40;;;21.20;99.90;;;;;;4917912;29;20506;-78
2022/07/25 19:04:59;;;;;;;3.28;0.98;;;21.20;99.90;;;;;;4912437;29;20032;-77
2022/07/25 19:07:24;;;;;;;6.03;1.10;;;21.10;99.90;;;;;;4923606;29;20540;-78
2022/07/25 19:09:50;;;;;;;37.70;23.00;;;21.10;99.90;;;;;;4906205;29;20507;-78
2022/07/25 19:12:16;;;;;;;4.85;0.60;;;21.00;99.90;;;;;;4915929;29;20063;-79
2022/07/25 19:14:41;;;;;;;12.30;6.47;;;21.00;99.90;;;;;;4919355;29;20094;-80
2022/07/25 19:17:08;;;;;;;7.57;1.27;;;21.00;99.90;;;;;;4920926;29;20040;-80
2022/07/25 19:19:33;;;;;;;7.10;1.63;;;20.90;99.90;;;;;;4922548;29;20484;-80
2022/07/25 19:21:59;;;;;;;6.57;0.60;;;20.90;99.90;;;;;;4954594;29;20044;-79
2022/07/25 19:24:25;;;;;;;5.28;0.82;;;20.90;99.90;;;;;;4915598;29;20040;-80
2022/07/25 19:26:51;;;;;;;2.97;0.52;;;20.90;99.90;;;;;;4925654;29;20506;-80
2022/07/25 19:29:16;;;;;;;5.85;0.95;;;20.90;99.90;;;;;;4912494;29;20044;-80
2022/07/25 19:31:43;;;;;;;3.97;0.60;;;20.80;99.90;;;;;;4920623;29;20044;-79
2022/07/25 19:34:09;;;;;;;6.60;0.82;;;20.80;99.90;;;;;;4919518;29;20047;-80
2022/07/25 19:36:34;;;;;;;5.82;1.52;;;20.70;99.90;;;;;;4924522;29;20441;-80
2022/07/25 19:39:00;;;;;;;3.67;1.10;;;20.70;99.90;;;;;;4925939;29;20047;-80
2022/07/25 19:41:26;;;;;;;6.43;1.17;;;20.60;99.90;;;;;;4924029;29;20035;-80
2022/07/25 19:43:52;;;;;;;3.40;0.50;;;20.60;99.90;;;;;;4927746;29;20043;-80
2022/07/25 19:46:19;;;;;;;4.72;0.60;;;20.60;99.90;;;;;;4908553;29;20050;-80
2022/07/25 19:48:44;;;;;;;8.00;0.90;;;20.60;99.90;;;;;;4931920;29;20055;-80
2022/07/25 19:51:10;;;;;;;6.78;1.13;;;20.50;99.90;;;;;;4933543;29;20394;-80
2022/07/25 19:53:36;;;;;;;4.43;2.17;;;20.50;99.90;;;;;;4933656;29;20047;-80
2022/07/25 19:56:02;;;;;;;4.38;0.73;;;20.40;99.90;;;;;;4933677;29;20050;-79
2022/07/25 19:58:27;;;;;;;8.00;0.80;;;20.40;99.90;;;;;;4928035;29;20182;-80
2022/07/25 20:00:53;;;;;;;5.53;1.02;;;20.40;99.90;;;;;;4925273;29;20115;-79
2022/07/25 20:03:19;;;;;;;4.55;0.60;;;20.40;99.90;;;;;;4919775;29;20044;-79
2022/07/25 20:05:44;;;;;;;3.95;0.75;;;20.40;99.90;;;;;;4928893;29;20099;-80
2022/07/25 20:08:11;;;;;;;5.55;0.40;;;20.30;99.90;;;;;;4931665;29;20118;-80
2022/07/25 20:10:39;;;;;;;6.53;2.13;;;20.30;99.90;;;;;;4916363;29;20075;-80
2022/07/25 20:13:05;;;;;;;6.97;1.80;;;20.30;99.90;;;;;;4933562;29;20039;-80
2022/07/25 20:15:31;;;;;;;5.07;0.95;;;20.30;99.90;;;;;;4927234;29;20051;-79
2022/07/25 20:17:57;;;;;;;6.28;0.60;;;20.20;99.90;;;;;;4908492;29;20062;-80
2022/07/25 20:20:24;;;;;;;5.63;0.60;;;20.20;99.90;;;;;;4897402;29;20067;-80
2022/07/25 20:22:49;;;;;;;5.88;0.60;;;20.20;99.90;;;;;;4923832;29;20055;-80
2022/07/25 20:25:15;;;;;;;9.48;3.17;;;20.20;99.90;;;;;;4914271;29;20039;-79
2022/07/25 20:27:40;;;;;;;7.15;1.58;;;20.20;99.90;;;;;;4906326;29;20126;-80
2022/07/25 20:30:08;;;;;;;10.00;1.40;;;20.20;99.90;;;;;;4921824;29;20493;-79
2022/07/25 20:32:33;;;;;;;5.15;1.20;;;20.20;99.90;;;;;;4922343;29;20054;-79
2022/07/25 20:34:59;;;;;;;63.60;52.25;;;20.10;99.90;;;;;;4927057;29;20134;-80
2022/07/25 20:37:25;;;;;;;7.00;1.00;;;20.10;99.90;;;;;;4921570;29;20044;-79
2022/07/25 20:39:51;;;;;;;5.40;1.05;;;20.10;99.90;;;;;;4915405;29;20094;-80
2022/07/25 20:42:16;;;;;;;7.97;1.45;;;20.10;99.90;;;;;;4927391;29;20047;-80
2022/07/25 20:44:42;;;;;;;6.15;0.80;;;20.10;99.90;;;;;;4915824;29;20044;-80
2022/07/25 20:47:08;;;;;;;4.53;0.98;;;20.10;99.90;;;;;;4915689;29;20040;-80
2022/07/25 20:49:35;;;;;;;9.00;1.15;;;20.10;99.90;;;;;;4930129;29;20102;-80
2022/07/25 20:52:01;;;;;;;7.65;0.93;;;19.90;99.90;;;;;;4922529;29;20043;-80
2022/07/25 20:54:26;;;;;;;5.97;1.75;;;20.00;99.90;;;;;;4919106;29;20122;-81
2022/07/25 20:56:52;;;;;;;7.40;1.77;;;20.00;99.90;;;;;;4927061;29;20070;-80
2022/07/25 20:59:17;;;;;;;4.40;0.88;;;20.00;99.90;;;;;;4924251;29;20036;-80
2022/07/25 21:01:43;;;;;;;8.88;0.98;;;20.00;99.90;;;;;;4923289;29;20036;-79
2022/07/25 21:04:09;;;;;;;7.53;1.33;;;20.00;99.90;;;;;;4926034;29;20482;-80
2022/07/25 21:06:34;;;;;;;6.05;0.73;;;20.00;99.90;;;;;;4910750;29;20080;-80
2022/07/25 21:09:00;;;;;;;13.38;1.75;;;19.90;99.90;;;;;;4918364;29;20132;-79
2022/07/25 21:11:25;;;;;;;9.70;1.10;;;19.90;99.90;;;;;;4921834;29;20063;-81
2022/07/25 21:13:51;;;;;;;7.75;1.38;;;19.90;99.90;;;;;;4904922;29;20055;-80
2022/07/25 21:16:17;;;;;;;10.23;2.75;;;19.90;99.90;;;;;;4931656;29;20051;-80
2022/07/25 21:18:42;;;;;;;4.82;0.90;;;19.90;99.90;;;;;;4935076;29;21187;-80
2022/07/25 21:21:08;;;;;;;9.60;2.03;;;19.80;99.90;;;;;;4921029;29;20055;-80
2022/07/25 21:23:35;;;;;;;6.78;1.48;;;19.80;99.90;;;;;;4936769;29;20051;-80
2022/07/25 21:26:00;;;;;;;4.28;0.80;;;19.80;99.90;;;;;;4937383;29;20047;-80
2022/07/25 21:28:26;;;;;;;6.97;1.05;;;19.70;99.90;;;;;;4936521;29;20098;-80
2022/07/25 21:30:52;;;;;;;6.78;1.30;;;19.70;99.90;;;;;;4913227;29;20061;-80
2022/07/25 21:33:17;;;;;;;5.50;1.58;;;19.70;99.90;;;;;;4925821;29;20039;-81
2022/07/25 21:35:43;;;;;;;6.07;0.90;;;19.60;99.90;;;;;;4917230;29;20071;-79
2022/07/25 21:38:08;;;;;;;9.43;1.73;;;19.60;99.90;;;;;;4901956;29;20048;-80
2022/07/25 21:40:35;;;;;;;9.05;1.80;;;19.60;99.90;;;;;;4917347;29;20068;-80
2022/07/25 21:43:00;;;;;;;11.90;2.33;;;19.50;99.90;;;;;;4918903;29;20048;-80
2022/07/25 21:45:26;;;;;;;5.70;0.90;;;19.50;99.90;;;;;;4902673;29;20407;-80
2022/07/25 21:47:52;;;;;;;7.18;1.58;;;19.50;99.90;;;;;;4920071;29;20156;-80
2022/07/25 21:53:07;;;;;;;6.43;1.08;;;19.40;99.90;;;;;;4936747;29;20451;-80
2022/07/25 21:55:33;;;;;;;9.02;1.67;;;19.30;99.90;;;;;;4904457;29;20043;-80
2022/07/25 21:57:58;;;;;;;7.88;2.10;;;19.30;99.90;;;;;;4920559;29;20613;-79
2022/07/25 22:00:25;;;;;;;11.77;1.90;;;19.30;99.90;;;;;;4917052;29;20044;-79
2022/07/25 22:02:50;;;;;;;7.50;1.25;;;19.20;99.90;;;;;;4919072;29;20135;-78
2022/07/25 22:05:17;;;;;;;9.02;2.47;;;19.20;99.90;;;;;;4920285;29;20122;-81
2022/07/25 22:07:43;;;;;;;6.65;1.13;;;19.20;99.90;;;;;;4904695;29;20044;-79
2022/07/25 22:10:11;;;;;;;7.28;1.50;;;19.10;99.90;;;;;;4897992;29;20194;-79
2022/07/25 22:12:38;;;;;;;6.80;1.42;;;19.00;99.90;;;;;;4900651;29;20039;-78
2022/07/25 22:15:04;;;;;;;10.38;1.70;;;19.00;99.90;;;;;;4916937;29;20051;-78
2022/07/25 22:17:30;;;;;;;9.93;1.70;;;18.90;99.90;;;;;;4923094;29;20089;-78
2022/07/25 22:19:55;;;;;;;6.28;1.35;;;18.80;99.90;;;;;;4916337;29;20463;-78
2022/07/25 22:22:21;;;;;;;9.55;1.60;;;18.90;99.90;;;;;;4916440;29;20075;-79
2022/07/25 22:24:46;;;;;;;7.93;1.20;;;18.90;99.90;;;;;;4916778;29;20044;-79
2022/07/25 22:27:12;;;;;;;11.10;2.05;;;18.80;99.90;;;;;;4916313;29;20200;-78
2022/07/25 22:29:38;;;;;;;8.52;1.73;;;18.80;99.90;;;;;;4916172;29;20048;-79
2022/07/25 22:32:03;;;;;;;12.48;2.55;;;18.80;99.90;;;;;;4919755;29;20135;-79
2022/07/25 22:34:29;;;;;;;9.75;1.92;;;18.80;99.90;;;;;;4915777;29;20251;-78
2022/07/25 22:36:55;;;;;;;15.60;1.70;;;18.80;99.90;;;;;;4923743;29;20482;-78
2022/07/25 22:39:21;;;;;;;7.43;2.72;;;18.80;99.90;;;;;;4894520;29;20036;-78
2022/07/25 22:41:47;;;;;;;10.50;1.92;;;18.80;99.90;;;;;;4917121;29;20458;-81
2022/07/25 22:44:12;;;;;;;9.25;1.75;;;18.80;99.90;;;;;;4921946;29;20039;-80
2022/07/25 22:46:38;;;;;;;13.40;3.03;;;18.90;99.90;;;;;;4921455;29;20043;-80
2022/07/25 22:49:04;;;;;;;10.35;1.73;;;18.90;99.90;;;;;;4908267;29;20071;-80
2022/07/25 22:51:29;;;;;;;10.63;2.20;;;18.90;99.90;;;;;;4905396;29;20052;-80
2022/07/25 22:53:57;;;;;;;9.85;1.83;;;18.90;99.90;;;;;;4906260;29;20050;-80
2022/07/25 22:56:23;;;;;;;10.73;1.50;;;18.90;99.90;;;;;;4922296;29;20059;-80
2022/07/25 22:58:48;;;;;;;7.20;2.33;;;18.90;99.90;;;;;;4922973;29;20043;-78
2022/07/25 23:01:14;;;;;;;5.32;1.35;;;18.90;99.90;;;;;;4923742;29;20036;-78
2022/07/25 23:03:39;;;;;;;4.85;1.83;;;18.90;99.90;;;;;;4930347;29;20123;-78
2022/07/25 23:06:05;;;;;;;9.27;2.55;;;18.90;99.90;;;;;;4938164;29;20457;-78
2022/07/25 23:08:31;;;;;;;7.35;1.73;;;19.00;99.90;;;;;;4925979;29;20123;-79
2022/07/25 23:10:56;;;;;;;8.90;1.65;;;19.00;99.90;;;;;;4919113;29;20051;-79
2022/07/25 23:13:22;;;;;;;8.98;1.77;;;19.00;99.90;;;;;;4919043;29;20074;-79
2022/07/25 23:15:48;;;;;;;8.50;1.52;;;19.00;99.90;;;;;;4936125;29;20399;-78
2022/07/25 23:18:13;;;;;;;8.13;1.25;;;19.10;99.90;;;;;;4926461;29;20036;-79
2022/07/25 23:20:39;;;;;;;7.03;2.97;;;19.00;99.90;;;;;;4915845;29;20139;-78
2022/07/25 23:23:04;;;;;;;6.18;1.67;;;19.00;99.90;;;;;;4911881;29;20055;-78
2022/07/25 23:25:30;;;;;;;7.57;2.15;;;19.00;99.90;;;;;;4918306;29;20046;-78
2022/07/25 23:27:56;;;;;;;6.43;1.73;;;19.00;99.90;;;;;;4915685;29;20063;-79
2022/07/25 23:30:21;;;;;;;13.45;4.05;;;19.00;99.90;;;;;;4915075;29;20054;-79
2022/07/25 23:32:47;;;;;;;9.35;2.53;;;19.00;99.90;;;;;;4919036;29;20123;-78
2022/07/25 23:35:12;;;;;;;8.45;2.85;;;19.00;99.90;;;;;;4918824;29;20122;-79
2022/07/25 23:37:38;;;;;;;10.52;2.60;;;19.00;99.90;;;;;;4918478;29;20305;-79
2022/07/25 23:40:05;;;;;;;9.52;1.80;;;19.00;99.90;;;;;;4934939;29;20043;-79
2022/07/25 23:42:30;;;;;;;13.18;2.33;;;19.00;99.90;;;;;;4922727;28;20078;-79
2022/07/25 23:44:56;;;;;;;12.93;2.63;;;19.00;99.90;;;;;;4906034;29;20086;-79
2022/07/25 23:47:22;;;;;;;16.63;3.17;;;18.90;99.90;;;;;;4901596;29;20443;-79